createdAt,value
2018-04-18T00:02:24.726Z,74.60
2018-04-18T00:04:52.862Z,74.69
2018-04-18T00:07:21.006Z,74.72
2018-04-18T00:09:49.132Z,74.73
2018-04-18T00:12:17.300Z,75.02
2018-04-18T00:14:45.448Z,74.84
2018-04-18T00:17:13.578Z,75.10
2018-04-18T00:19:41.725Z,75.06
2018-04-18T00:22:13.549Z,75.35
2018-04-18T00:24:41.693Z,75.25
2018-04-18T00:27:10.074Z,75.47
2018-04-18T00:29:38.221Z,75.47
2018-04-18T00:32:20.643Z,75.44
2018-04-18T00:34:48.796Z,75.60
2018-04-18T00:37:16.922Z,75.46
2018-04-18T00:39:45.049Z,75.76
2018-04-18T00:42:20.672Z,76.02
2018-04-18T00:44:48.828Z,76.56
2018-04-18T00:47:16.945Z,76.43
2018-04-18T00:49:45.101Z,77.37
2018-04-18T00:52:16.906Z,77.93
2018-04-18T00:54:45.058Z,77.43
2018-04-18T00:57:13.175Z,77.06
2018-04-18T00:59:47.068Z,77.02
2018-04-18T01:02:15.186Z,76.92
2018-04-18T01:04:43.342Z,77.02
2018-04-18T01:07:22.032Z,76.88
2018-04-18T01:09:50.171Z,76.50
2018-04-18T01:12:18.317Z,76.92
2018-04-18T01:14:46.504Z,77.03
2018-04-18T01:17:14.654Z,76.76
2018-04-18T01:19:42.761Z,76.64
2018-04-18T01:22:10.924Z,77.26
2018-04-18T01:24:39.041Z,77.62
2018-04-18T01:27:07.172Z,77.30
2018-04-18T01:29:38.550Z,77.41
2018-04-18T01:32:06.680Z,77.51
2018-04-18T01:34:34.829Z,77.33
2018-04-18T01:37:02.976Z,77.34
2018-04-18T01:39:31.122Z,77.86
2018-04-18T01:41:59.275Z,78.17
2018-04-18T01:44:27.439Z,77.85
2018-04-18T01:46:55.571Z,77.42
2018-04-18T01:49:31.581Z,77.67
2018-04-18T01:51:59.718Z,77.16
2018-04-18T01:54:27.844Z,77.42
2018-04-18T01:56:55.995Z,77.32
2018-04-18T01:59:24.184Z,76.95
2018-04-18T02:01:52.276Z,77.43
2018-04-18T02:04:20.584Z,78.03
2018-04-18T02:06:48.716Z,78.01
2018-04-18T02:09:16.836Z,77.78
2018-04-18T02:11:45.206Z,77.58
2018-04-18T02:14:17.556Z,77.53
2018-04-18T02:16:45.714Z,77.43
2018-04-18T02:19:13.856Z,77.27
2018-04-18T02:21:41.978Z,77.35
2018-04-18T02:24:11.998Z,77.72
2018-04-18T02:26:40.146Z,77.61
2018-04-18T02:29:08.276Z,77.96
2018-04-18T02:31:36.414Z,78.05
2018-04-18T02:34:04.560Z,77.94
2018-04-18T02:36:32.713Z,78.25
2018-04-18T02:39:00.828Z,78.38
2018-04-18T02:41:41.644Z,78.43
2018-04-18T02:44:09.783Z,78.60
2018-04-18T02:46:37.948Z,78.65
2018-04-18T02:49:06.089Z,78.15
2018-04-18T02:51:36.239Z,78.30
2018-04-18T02:54:04.378Z,78.17
2018-04-18T02:56:32.728Z,78.66
2018-04-18T02:59:00.856Z,78.48
2018-04-18T03:01:28.980Z,78.50
2018-04-18T03:03:57.116Z,78.48
2018-04-18T03:06:25.270Z,78.39
2018-04-18T03:08:53.417Z,78.61
2018-04-18T03:11:21.539Z,78.36
2018-04-18T03:13:49.702Z,78.10
2018-04-18T03:16:17.851Z,78.12
2018-04-18T03:18:45.992Z,78.12
2018-04-18T03:21:14.128Z,78.22
2018-04-18T03:24:01.222Z,77.97
2018-04-18T03:26:29.389Z,77.75
2018-04-18T03:28:57.534Z,77.82
2018-04-18T03:34:33.555Z,78.24
2018-04-18T03:37:01.714Z,77.85
2018-04-18T03:39:29.850Z,78.07
2018-04-18T03:42:04.096Z,78.16
2018-04-18T03:44:37.111Z,78.09
2018-04-18T03:47:05.268Z,77.71
2018-04-18T03:49:35.423Z,77.40
2018-04-18T03:52:08.102Z,77.75
2018-04-18T03:54:36.259Z,77.32
2018-04-18T03:57:04.378Z,77.37
2018-04-18T03:59:32.524Z,77.63
2018-04-18T04:02:00.653Z,77.75
2018-04-18T04:04:28.799Z,76.89
2018-04-18T04:06:58.897Z,76.89
2018-04-18T04:09:27.042Z,77.21
2018-04-18T04:12:09.179Z,77.23
2018-04-18T04:14:39.219Z,77.34
2018-04-18T04:17:19.071Z,77.59
2018-04-18T04:20:01.158Z,77.11
2018-04-18T04:22:46.853Z,77.52
2018-04-18T04:25:14.987Z,76.85
2018-04-18T04:27:43.946Z,76.93
2018-04-18T04:30:13.038Z,76.70
2018-04-18T04:32:42.074Z,76.38
2018-04-18T04:35:11.136Z,76.63
2018-04-18T04:37:49.940Z,76.66
2018-04-18T04:40:20.133Z,76.25
2018-04-18T04:42:48.280Z,76.81
2018-04-18T04:45:16.429Z,76.85
2018-04-18T04:47:50.913Z,76.67
2018-04-18T04:50:22.905Z,76.17
2018-04-18T04:52:51.040Z,76.16
2018-04-18T04:55:19.185Z,76.33
2018-04-18T04:57:47.324Z,76.00
2018-04-18T05:00:20.804Z,75.96
2018-04-18T05:02:48.950Z,76.01
2018-04-18T05:05:17.125Z,76.42
2018-04-18T05:07:45.263Z,76.42
2018-04-18T05:10:13.425Z,76.05
2018-04-18T05:12:41.612Z,75.63
2018-04-18T05:15:09.753Z,75.92
2018-04-18T05:17:41.690Z,75.75
2018-04-18T05:20:09.868Z,76.32
2018-04-18T05:22:38.027Z,76.42
2018-04-18T05:25:08.080Z,75.67
2018-04-18T05:27:36.220Z,75.61
2018-04-18T05:30:04.444Z,75.42
2018-04-18T05:32:40.466Z,74.89
2018-04-18T05:35:23.518Z,75.13
2018-04-18T05:37:51.696Z,74.87
2018-04-18T05:40:19.838Z,75.16
2018-04-18T05:42:47.970Z,75.04
2018-04-18T05:45:16.237Z,74.67
2018-04-18T05:47:44.303Z,74.17
2018-04-18T05:50:12.472Z,73.28
2018-04-18T05:52:40.623Z,73.03
2018-04-18T05:55:08.760Z,72.32
2018-04-18T05:57:36.907Z,72.27
2018-04-18T06:00:05.095Z,72.14
2018-04-18T06:02:33.183Z,71.53
2018-04-18T06:05:01.304Z,72.15
2018-04-18T06:07:29.461Z,71.58
2018-04-18T06:09:57.613Z,71.20
2018-04-18T06:12:25.728Z,71.48
2018-04-18T06:14:53.887Z,70.94
2018-04-18T06:17:25.083Z,71.26
2018-04-18T06:19:53.243Z,71.20
2018-04-18T06:22:24.330Z,70.66
2018-04-18T06:24:52.458Z,70.46
2018-04-18T06:27:20.622Z,69.86
2018-04-18T06:29:48.793Z,69.32
2018-04-18T06:32:16.941Z,68.00
2018-04-18T06:34:45.063Z,67.37
2018-04-18T06:39:40.473Z,67.48
2018-04-18T06:42:08.603Z,66.06
2018-04-18T06:44:40.220Z,66.39
2018-04-18T06:47:08.370Z,65.59
2018-04-18T06:49:36.588Z,64.11
2018-04-18T06:52:04.740Z,63.53
2018-04-18T06:54:33.797Z,64.24
2018-04-18T06:57:01.946Z,63.12
2018-04-18T06:59:37.615Z,63.17
2018-04-18T07:02:05.743Z,63.33
2018-04-18T07:04:33.893Z,62.55
2018-04-18T07:07:02.030Z,62.09
2018-04-18T07:09:30.159Z,60.82
2018-04-18T07:11:58.286Z,61.11
2018-04-18T07:14:26.503Z,60.27
2018-04-18T07:16:54.610Z,59.99
2018-04-18T07:19:22.753Z,59.28
2018-04-18T07:21:50.883Z,60.38
2018-04-18T07:24:19.038Z,59.17
2018-04-18T07:26:47.171Z,58.72
2018-04-18T07:29:15.619Z,59.23
2018-04-18T07:31:43.755Z,59.05
2018-04-18T07:34:11.902Z,58.63
2018-04-18T07:36:40.073Z,58.57
2018-04-18T07:39:08.217Z,58.46
2018-04-18T07:41:36.329Z,58.69
2018-04-18T07:44:04.468Z,59.18
2018-04-18T07:46:32.621Z,57.86
2018-04-18T07:49:00.740Z,57.85
2018-04-18T07:51:28.865Z,58.01
2018-04-18T07:53:57.019Z,58.55
2018-04-18T07:56:25.168Z,57.98
2018-04-18T07:58:53.329Z,58.48
2018-04-18T08:01:21.465Z,58.10
2018-04-18T08:03:49.610Z,58.00
2018-04-18T08:06:17.762Z,57.33
2018-04-18T08:08:45.916Z,56.75
2018-04-18T08:11:14.053Z,56.45
2018-04-18T08:13:42.194Z,57.44
2018-04-18T08:16:10.328Z,56.82
2018-04-18T08:18:38.475Z,56.67
2018-04-18T08:21:06.616Z,57.05
2018-04-18T08:23:34.751Z,56.63
2018-04-18T08:26:02.905Z,55.43
2018-04-18T08:28:31.072Z,54.29
2018-04-18T08:30:59.206Z,54.05
2018-04-18T08:33:27.344Z,53.67
2018-04-18T08:35:55.483Z,53.45
2018-04-18T08:38:23.611Z,50.54
2018-04-18T08:40:51.734Z,52.20
2018-04-18T08:43:19.888Z,51.63
2018-04-18T08:45:48.004Z,49.52
2018-04-18T08:48:16.155Z,49.28
2018-04-18T08:50:44.304Z,47.90
2018-04-18T08:53:12.431Z,47.79
2018-04-18T08:55:40.554Z,47.45
2018-04-18T08:58:08.871Z,48.36
2018-04-18T09:00:37.049Z,46.75
2018-04-18T09:03:05.185Z,44.92
2018-04-18T09:05:33.596Z,45.12
2018-04-18T09:08:01.748Z,45.14
2018-04-18T09:10:29.899Z,46.87
2018-04-18T09:12:58.075Z,46.16
2018-04-18T09:15:26.223Z,44.09
2018-04-18T09:17:54.333Z,44.15
2018-04-18T09:20:22.484Z,44.75
2018-04-18T09:22:50.597Z,45.05
2018-04-18T09:25:18.729Z,44.62
2018-04-18T09:27:47.566Z,44.29
2018-04-18T09:30:15.699Z,44.81
2018-04-18T09:32:43.831Z,45.55
2018-04-18T09:35:11.993Z,42.65
2018-04-18T09:37:40.137Z,42.43
2018-04-18T09:40:08.287Z,42.86
2018-04-18T09:42:36.665Z,42.93
2018-04-18T09:45:04.800Z,41.74
2018-04-18T09:47:32.925Z,42.41
2018-04-18T09:50:01.092Z,42.05
2018-04-18T09:52:29.258Z,41.56
2018-04-18T09:54:57.379Z,42.10
2018-04-18T09:57:25.513Z,41.93
2018-04-18T09:59:53.673Z,42.26
2018-04-18T10:02:27.372Z,40.72
2018-04-18T10:04:55.492Z,40.20
2018-04-18T10:07:23.605Z,40.93
2018-04-18T10:09:51.736Z,40.70
2018-04-18T10:12:19.888Z,40.65
2018-04-18T10:14:48.029Z,41.70
2018-04-18T10:17:16.179Z,40.62
2018-04-18T10:19:44.342Z,41.32
2018-04-18T10:22:12.465Z,41.01
2018-04-18T10:24:40.640Z,40.67
2018-04-18T10:27:08.762Z,40.44
2018-04-18T10:29:36.904Z,39.07
2018-04-18T10:32:05.031Z,40.74
2018-04-18T10:34:33.157Z,40.34
2018-04-18T10:37:01.310Z,40.03
2018-04-18T10:39:29.456Z,39.56
2018-04-18T10:41:57.597Z,39.37
2018-04-18T10:44:25.722Z,37.72
2018-04-18T10:46:53.868Z,38.47
2018-04-18T10:49:22.017Z,36.78
2018-04-18T10:51:50.154Z,37.86
2018-04-18T10:54:18.309Z,37.29
2018-04-18T10:56:46.420Z,37.08
2018-04-18T10:59:14.558Z,37.66
2018-04-18T11:01:42.703Z,36.83
2018-04-18T11:04:10.852Z,36.27
2018-04-18T11:06:38.976Z,36.84
2018-04-18T11:09:07.119Z,37.25
2018-04-18T11:11:35.257Z,37.14
2018-04-18T11:14:03.365Z,36.90
2018-04-18T11:16:31.530Z,37.23
2018-04-18T11:18:59.659Z,37.42
2018-04-18T11:21:27.766Z,38.28
2018-04-18T11:23:55.933Z,38.20
2018-04-18T11:26:24.064Z,37.57
2018-04-18T11:28:52.185Z,37.58
2018-04-18T11:31:20.331Z,38.59
2018-04-18T11:33:48.486Z,37.99
2018-04-18T11:36:16.745Z,37.05
2018-04-18T11:38:44.872Z,36.99
2018-04-18T11:41:13.026Z,37.61
2018-04-18T11:43:41.146Z,37.18
2018-04-18T11:46:09.302Z,37.28
2018-04-18T11:48:37.438Z,36.01
2018-04-18T11:51:05.575Z,37.58
2018-04-18T11:53:33.729Z,36.86
2018-04-18T11:56:01.867Z,37.53
2018-04-18T11:58:31.912Z,36.85
2018-04-18T12:01:00.066Z,37.36
2018-04-18T12:03:28.199Z,36.96
2018-04-18T12:05:56.340Z,36.82
2018-04-18T12:08:24.510Z,35.69
2018-04-18T12:10:52.621Z,36.67
2018-04-18T12:13:20.768Z,37.38
2018-04-18T12:15:48.927Z,35.78
2018-04-18T12:18:17.068Z,36.26
2018-04-18T12:20:45.184Z,36.84
2018-04-18T12:23:13.362Z,36.27
2018-04-18T12:25:41.504Z,36.15
2018-04-18T12:28:09.632Z,34.87
2018-04-18T12:30:37.778Z,35.74
2018-04-18T12:33:05.938Z,34.84
2018-04-18T12:35:34.071Z,35.72
2018-04-18T12:38:02.217Z,35.36
2018-04-18T12:40:30.372Z,33.84
2018-04-18T12:42:58.512Z,33.73
2018-04-18T12:45:26.638Z,34.67
2018-04-18T12:47:54.766Z,34.98
2018-04-18T12:50:22.925Z,34.15
2018-04-18T12:52:51.076Z,34.32
2018-04-18T12:55:19.225Z,35.10
2018-04-18T12:57:47.354Z,34.84
2018-04-18T13:00:15.510Z,33.52
2018-04-18T13:02:43.641Z,34.20
2018-04-18T13:05:11.773Z,33.26
2018-04-18T13:07:40.111Z,33.33
2018-04-18T13:10:08.269Z,33.75
2018-04-18T13:12:36.387Z,33.97
2018-04-18T13:15:04.532Z,35.00
2018-04-18T13:17:32.663Z,34.60
2018-04-18T13:20:00.784Z,33.56
2018-04-18T13:22:28.964Z,32.76
2018-04-18T13:24:57.100Z,32.70
2018-04-18T13:27:25.221Z,34.47
2018-04-18T13:29:53.392Z,34.76
2018-04-18T13:32:21.526Z,34.52
2018-04-18T13:34:49.658Z,34.94
2018-04-18T13:37:17.819Z,34.34
2018-04-18T13:39:45.955Z,33.81
2018-04-18T13:42:14.087Z,35.32
2018-04-18T13:44:42.247Z,34.65
2018-04-18T13:47:10.377Z,35.52
2018-04-18T13:49:38.497Z,35.42
2018-04-18T13:52:06.665Z,36.41
2018-04-18T13:54:34.812Z,34.71
2018-04-18T13:57:02.932Z,35.03
2018-04-18T13:59:31.078Z,35.26
2018-04-18T14:01:59.201Z,34.42
2018-04-18T14:04:27.360Z,34.33
2018-04-18T14:06:55.497Z,34.82
2018-04-18T14:09:23.649Z,34.97
2018-04-18T14:11:51.779Z,35.62
2018-04-18T14:14:19.937Z,34.77
2018-04-18T14:16:48.066Z,35.17
2018-04-18T14:19:16.192Z,34.74
2018-04-18T14:21:44.374Z,34.70
2018-04-18T14:24:12.506Z,35.05
2018-04-18T14:26:40.708Z,34.76
2018-04-18T14:29:08.789Z,34.51
2018-04-18T14:31:36.926Z,34.00
2018-04-18T14:34:05.057Z,34.26
2018-04-18T14:36:33.227Z,33.99
2018-04-18T14:39:01.361Z,33.56
2018-04-18T14:41:29.514Z,34.55
2018-04-18T14:43:57.631Z,34.23
2018-04-18T14:46:25.765Z,34.25
2018-04-18T14:48:53.897Z,34.15
2018-04-18T14:51:22.210Z,34.10
2018-04-18T14:53:50.342Z,34.80
2018-04-18T14:56:18.498Z,33.33
2018-04-18T14:58:46.988Z,32.89
2018-04-18T15:01:15.501Z,32.54
2018-04-18T15:03:43.645Z,32.47
2018-04-18T15:06:11.797Z,32.38
2018-04-18T15:08:39.939Z,32.99
2018-04-18T15:11:08.091Z,32.94
2018-04-18T15:13:36.250Z,33.55
2018-04-18T15:16:05.301Z,33.18
2018-04-18T15:18:33.443Z,34.08
2018-04-18T15:21:01.600Z,33.58
2018-04-18T15:23:33.314Z,32.03
2018-04-18T15:26:01.453Z,33.08
2018-04-18T15:28:29.663Z,32.86
2018-04-18T15:30:57.736Z,31.76
2018-04-18T15:33:26.623Z,32.19
2018-04-18T15:35:54.756Z,32.09
2018-04-18T15:38:22.893Z,32.75
2018-04-18T15:40:51.028Z,32.21
2018-04-18T15:43:19.371Z,32.67
2018-04-18T15:45:47.524Z,32.13
2018-04-18T15:48:15.679Z,32.77
2018-04-18T15:50:43.824Z,32.91
2018-04-18T15:53:11.952Z,32.50
2018-04-18T15:55:40.097Z,32.40
2018-04-18T15:58:08.232Z,32.44
2018-04-18T16:00:36.484Z,31.24
2018-04-18T16:03:04.591Z,31.44
2018-04-18T16:05:32.749Z,32.64
2018-04-18T16:08:00.871Z,31.79
2018-04-18T16:10:29.008Z,31.85
2018-04-18T16:12:57.336Z,32.08
2018-04-18T16:15:25.451Z,32.53
2018-04-18T16:17:53.573Z,31.93
2018-04-18T16:20:21.712Z,32.28
2018-04-18T16:22:49.841Z,31.64
2018-04-18T16:25:17.992Z,30.82
2018-04-18T16:27:46.131Z,32.00
2018-04-18T16:30:26.002Z,31.00
2018-04-18T16:32:54.150Z,30.94
2018-04-18T16:35:22.300Z,31.19
2018-04-18T16:37:50.430Z,31.92
2018-04-18T16:40:18.589Z,30.81
2018-04-18T16:42:46.733Z,30.27
2018-04-18T16:45:14.858Z,30.17
2018-04-18T16:47:43.023Z,30.49
2018-04-18T16:50:11.158Z,30.37
2018-04-18T16:52:39.293Z,29.80
2018-04-18T16:55:07.441Z,30.30
2018-04-18T16:57:35.600Z,30.75
2018-04-18T17:00:03.741Z,31.65
2018-04-18T17:02:31.904Z,32.25
2018-04-18T17:05:03.261Z,32.88
2018-04-18T17:07:31.421Z,32.95
2018-04-18T17:09:59.563Z,33.19
2018-04-18T17:12:27.687Z,32.39
2018-04-18T17:14:55.807Z,32.17
2018-04-18T17:17:23.936Z,31.91
2018-04-18T17:19:52.102Z,32.36
2018-04-18T17:22:20.227Z,32.57
2018-04-18T17:24:48.389Z,32.76
2018-04-18T17:27:16.513Z,33.70
2018-04-18T17:29:44.639Z,34.62
2018-04-18T17:32:12.824Z,34.83
2018-04-18T17:34:40.931Z,35.87
2018-04-18T17:37:09.079Z,35.25
2018-04-18T17:39:37.222Z,37.00
2018-04-18T17:42:05.378Z,37.61
2018-04-18T17:44:33.509Z,38.06
2018-04-18T17:47:01.884Z,39.18
2018-04-18T17:49:30.012Z,37.90
2018-04-18T17:51:58.141Z,38.08
2018-04-18T17:54:26.292Z,39.04
2018-04-18T17:56:54.418Z,39.80
2018-04-18T17:59:22.550Z,39.43
2018-04-18T18:01:50.702Z,39.44
2018-04-18T18:04:18.817Z,41.52
2018-04-18T18:06:46.933Z,42.02
2018-04-18T18:09:15.091Z,42.25
2018-04-18T18:11:43.227Z,42.90
2018-04-18T18:14:11.363Z,44.32
2018-04-18T18:16:39.517Z,45.60
2018-04-18T18:19:07.665Z,45.72
2018-04-18T18:21:35.792Z,45.79
2018-04-18T18:24:03.922Z,44.53
2018-04-18T18:26:32.059Z,45.99
2018-04-18T18:29:00.189Z,46.77
2018-04-18T18:31:29.437Z,47.01
2018-04-18T18:34:00.828Z,47.52
2018-04-18T18:36:28.958Z,47.75
2018-04-18T18:38:57.111Z,47.89
2018-04-18T18:41:25.257Z,48.66
2018-04-18T18:43:53.395Z,48.72
2018-04-18T18:46:21.555Z,49.18
2018-04-18T18:48:49.686Z,49.85
2018-04-18T18:51:17.828Z,49.89
2018-04-18T18:53:45.957Z,50.72
2018-04-18T18:56:14.080Z,50.60
2018-04-18T18:58:42.232Z,50.80
2018-04-18T19:01:10.402Z,51.23
2018-04-18T19:03:41.595Z,51.24
2018-04-18T19:06:09.729Z,52.19
2018-04-18T19:08:37.890Z,52.14
2018-04-18T19:11:06.027Z,52.39
2018-04-18T19:13:34.167Z,52.71
2018-04-18T19:16:02.337Z,53.04
2018-04-18T19:18:30.452Z,53.24
2018-04-18T19:20:58.609Z,53.46
2018-04-18T19:23:26.756Z,53.84
2018-04-18T19:25:54.891Z,53.73
2018-04-18T19:28:23.116Z,54.31
2018-04-18T19:30:51.181Z,54.62
2018-04-18T19:33:19.317Z,54.98
2018-04-18T19:35:47.447Z,55.10
2018-04-18T19:38:15.576Z,55.01
2018-04-18T19:40:43.721Z,55.60
2018-04-18T19:43:11.866Z,55.70
2018-04-18T19:45:40.006Z,55.77
2018-04-18T19:48:08.130Z,56.19
2018-04-18T19:50:36.252Z,56.33
2018-04-18T19:53:04.445Z,56.35
2018-04-18T19:55:32.585Z,56.15
2018-04-18T19:58:00.724Z,56.07
2018-04-18T20:00:28.872Z,56.29
2018-04-18T20:02:57.149Z,56.30
2018-04-18T20:05:25.261Z,56.47
2018-04-18T20:07:53.398Z,56.42
2018-04-18T20:10:21.540Z,56.77
2018-04-18T20:12:49.652Z,57.04
2018-04-18T20:15:17.785Z,57.24
2018-04-18T20:17:45.922Z,57.72
2018-04-18T20:20:14.062Z,58.10
2018-04-18T20:22:42.199Z,58.19
2018-04-18T20:25:10.326Z,57.94
2018-04-18T20:27:38.472Z,58.52
2018-04-18T20:30:06.768Z,58.95
2018-04-18T20:32:38.532Z,59.02
2018-04-18T20:35:06.696Z,59.16
2018-04-18T20:37:34.853Z,58.75
2018-04-18T20:40:02.982Z,59.49
2018-04-18T20:42:31.131Z,59.54
2018-04-18T20:44:59.280Z,59.93
2018-04-18T20:47:27.418Z,59.85
2018-04-18T20:49:55.568Z,59.96
2018-04-18T20:52:23.720Z,59.55
2018-04-18T20:54:51.845Z,60.23
2018-04-18T20:57:19.979Z,59.85
2018-04-18T20:59:48.859Z,59.49
2018-04-18T21:02:16.996Z,59.75
2018-04-18T21:04:45.128Z,59.75
2018-04-18T21:07:15.280Z,59.68
2018-04-18T21:09:43.433Z,59.00
2018-04-18T21:12:11.656Z,59.92
2018-04-18T21:14:39.804Z,60.15
2018-04-18T21:17:07.928Z,59.98
2018-04-18T21:19:36.086Z,60.17
2018-04-18T21:22:04.270Z,60.62
2018-04-18T21:24:32.517Z,60.55
2018-04-18T21:27:00.670Z,60.33
2018-04-18T21:29:28.827Z,60.42
2018-04-18T21:31:57.079Z,60.85
2018-04-18T21:34:25.313Z,60.90
2018-04-18T21:36:53.486Z,61.47
2018-04-18T21:39:21.684Z,61.10
2018-04-18T21:41:49.871Z,61.34
2018-04-18T21:44:18.005Z,61.22
2018-04-18T21:46:46.172Z,61.42
2018-04-18T21:49:14.408Z,61.51
2018-04-18T21:51:42.704Z,61.69
2018-04-18T21:54:10.838Z,61.44
2018-04-18T21:56:38.956Z,61.86
2018-04-18T21:59:07.125Z,62.21
2018-04-18T22:07:34.740Z,62.58
2018-04-18T22:10:20.463Z,62.82
2018-04-18T22:12:48.602Z,62.97
2018-04-18T22:15:16.752Z,63.09
2018-04-18T22:17:44.917Z,63.17
2018-04-18T22:20:13.049Z,63.26
2018-04-18T22:22:41.183Z,63.33
2018-04-18T22:25:09.333Z,63.87
2018-04-18T22:27:40.491Z,64.09
2018-04-18T22:30:20.316Z,64.30
2018-04-18T22:32:48.432Z,64.26
2018-04-18T22:35:16.590Z,64.23
2018-04-18T22:37:44.728Z,64.08
2018-04-18T22:40:12.852Z,63.82
2018-04-18T22:42:40.997Z,64.17
2018-04-18T22:45:09.124Z,64.04
2018-04-18T22:47:37.272Z,64.19
2018-04-18T22:50:05.409Z,64.42
2018-04-18T22:52:33.569Z,64.68
2018-04-18T22:55:01.700Z,65.03
2018-04-18T22:57:29.834Z,65.28
2018-04-18T22:59:57.978Z,65.16
2018-04-18T23:02:26.129Z,65.14
2018-04-18T23:04:54.256Z,65.93
2018-04-18T23:07:22.394Z,65.59
2018-04-18T23:09:50.510Z,66.24
2018-04-18T23:12:18.627Z,66.61
2018-04-18T23:14:46.780Z,66.72
2018-04-18T23:17:14.982Z,66.81
2018-04-18T23:19:43.103Z,66.93
2018-04-18T23:22:11.259Z,66.04
2018-04-18T23:24:39.380Z,66.15
2018-04-18T23:27:07.500Z,66.23
2018-04-18T23:29:35.678Z,66.09
2018-04-18T23:32:03.804Z,65.96
2018-04-18T23:34:31.934Z,66.45
2018-04-18T23:37:00.089Z,66.17
2018-04-18T23:39:28.230Z,66.65
2018-04-18T23:41:56.388Z,66.47
2018-04-18T23:44:24.509Z,66.89
2018-04-18T23:46:52.645Z,67.09
2018-04-18T23:49:20.779Z,67.11
2018-04-18T23:51:48.918Z,66.94
2018-04-18T23:54:17.033Z,66.85
2018-04-18T23:56:45.173Z,66.72
2018-04-18T23:59:13.341Z,66.79
